OCN689 EETN-EFHK
Flight info
| Callsign | OCN689 |
|---|---|
| Flight time | 0h 20m |
| Altitude | 11000 |
| Route | INTOR |
| Aircraft | A320/M-SDE3FGHIRWY/LB1 |
Departure
| Time | 2026-05-07 20:44 |
|---|---|
| Airport | Lennart Meri Tallinn Airport (EETN) |
Arrival
| Time | 2026-05-07 21:04 |
|---|---|
| Airport | Helsinki Vantaa Airport (EFHK) |
| Time | Latitude | Longitude | Altitude | Speed | Heading |
|---|---|---|---|---|---|
| 2026-05-07 20:10 | 59.41737 | 24.80583 | 139 ft | 0 kts | 358° |
| 2026-05-07 20:31 | 59.41734 | 24.80583 | 138 ft | 3 kts | 358° |
| 2026-05-07 20:31 | 59.41708 | 24.80584 | 138 ft | 4 kts | 5° |
| 2026-05-07 20:31 | 59.41682 | 24.80573 | 138 ft | 4 kts | 32° |
| 2026-05-07 20:32 | 59.41667 | 24.80539 | 138 ft | 4 kts | 86° |
| 2026-05-07 20:32 | 59.41667 | 24.80521 | 138 ft | 0 kts | 94° |
| 2026-05-07 20:37 | 59.41667 | 24.80523 | 138 ft | 2 kts | 94° |
| 2026-05-07 20:37 | 59.41664 | 24.80631 | 138 ft | 10 kts | 90° |
| 2026-05-07 20:37 | 59.41664 | 24.80719 | 138 ft | 9 kts | 89° |
| 2026-05-07 20:38 | 59.41665 | 24.80840 | 139 ft | 8 kts | 89° |
| 2026-05-07 20:38 | 59.41665 | 24.80950 | 139 ft | 8 kts | 90° |
| 2026-05-07 20:38 | 59.41662 | 24.81096 | 139 ft | 13 kts | 100° |
| 2026-05-07 20:38 | 59.41594 | 24.81177 | 139 ft | 12 kts | 179° |
| 2026-05-07 20:39 | 59.41520 | 24.81203 | 139 ft | 10 kts | 145° |
| 2026-05-07 20:39 | 59.41504 | 24.81324 | 139 ft | 10 kts | 90° |
| 2026-05-07 20:39 | 59.41502 | 24.81544 | 139 ft | 23 kts | 91° |
| 2026-05-07 20:39 | 59.41503 | 24.81894 | 139 ft | 27 kts | 90° |
| 2026-05-07 20:40 | 59.41501 | 24.82275 | 139 ft | 29 kts | 90° |
| 2026-05-07 20:40 | 59.41502 | 24.82534 | 139 ft | 15 kts | 90° |
| 2026-05-07 20:40 | 59.41501 | 24.82731 | 140 ft | 14 kts | 90° |
| 2026-05-07 20:40 | 59.41500 | 24.82932 | 140 ft | 19 kts | 90° |
| 2026-05-07 20:41 | 59.41499 | 24.83247 | 140 ft | 26 kts | 91° |
| 2026-05-07 20:41 | 59.41499 | 24.83613 | 140 ft | 28 kts | 90° |
| 2026-05-07 20:41 | 59.41497 | 24.84004 | 140 ft | 30 kts | 90° |
| 2026-05-07 20:41 | 59.41497 | 24.84346 | 140 ft | 19 kts | 90° |
| 2026-05-07 20:42 | 59.41497 | 24.84615 | 141 ft | 20 kts | 90° |
| 2026-05-07 20:42 | 59.41494 | 24.84882 | 141 ft | 16 kts | 92° |
| 2026-05-07 20:42 | 59.41442 | 24.85000 | 141 ft | 10 kts | 171° |
| 2026-05-07 20:42 | 59.41375 | 24.85003 | 141 ft | 9 kts | 181° |
| 2026-05-07 20:43 | 59.41327 | 24.84971 | 141 ft | 6 kts | 243° |
| 2026-05-07 20:43 | 59.41323 | 24.84916 | 141 ft | 0 kts | 270° |
| 2026-05-07 20:44 | 59.41324 | 24.84307 | 139 ft | 94 kts | 270° |
| 2026-05-07 20:44 | 59.41325 | 24.82451 | 205 ft | 168 kts | 270° |
| 2026-05-07 20:44 | 59.41322 | 24.80131 | 1183 ft | 173 kts | 272° |
| 2026-05-07 20:44 | 59.41472 | 24.77705 | 1958 ft | 188 kts | 297° |
| 2026-05-07 20:45 | 59.42451 | 24.75947 | 2440 ft | 205 kts | 343° |
| 2026-05-07 20:45 | 59.43926 | 24.75840 | 3006 ft | 228 kts | 7° |
| 2026-05-07 20:45 | 59.45554 | 24.76448 | 3743 ft | 245 kts | 13° |
| 2026-05-07 20:45 | 59.47233 | 24.77255 | 4749 ft | 251 kts | 14° |
| 2026-05-07 20:46 | 59.48928 | 24.78076 | 5911 ft | 250 kts | 14° |
| 2026-05-07 20:46 | 59.50636 | 24.78864 | 6936 ft | 255 kts | 12° |
| 2026-05-07 20:46 | 59.52394 | 24.79562 | 7841 ft | 261 kts | 9° |
| 2026-05-07 20:46 | 59.54207 | 24.80207 | 8741 ft | 268 kts | 8° |
| 2026-05-07 20:47 | 59.56074 | 24.80835 | 9542 ft | 276 kts | 6° |
| 2026-05-07 20:47 | 59.57952 | 24.81776 | 9958 ft | 282 kts | 18° |
| 2026-05-07 20:47 | 59.59681 | 24.83667 | 10214 ft | 289 kts | 33° |
| 2026-05-07 20:47 | 59.61365 | 24.86184 | 10475 ft | 316 kts | 34° |
| 2026-05-07 20:48 | 59.63144 | 24.88863 | 10708 ft | 326 kts | 34° |
| 2026-05-07 20:48 | 59.64950 | 24.91608 | 10967 ft | 329 kts | 34° |
| 2026-05-07 20:48 | 59.66774 | 24.94383 | 11108 ft | 331 kts | 34° |
| 2026-05-07 20:48 | 59.68571 | 24.97113 | 11130 ft | 323 kts | 33° |
| 2026-05-07 20:49 | 59.70347 | 24.99803 | 11130 ft | 321 kts | 33° |
| 2026-05-07 20:49 | 59.72118 | 25.02484 | 11128 ft | 320 kts | 33° |
| 2026-05-07 20:49 | 59.73888 | 25.05163 | 11129 ft | 320 kts | 33° |
| 2026-05-07 20:49 | 59.75657 | 25.07840 | 11127 ft | 320 kts | 33° |
| 2026-05-07 20:50 | 59.77402 | 25.10486 | 11137 ft | 320 kts | 33° |
| 2026-05-07 20:50 | 59.79171 | 25.13169 | 11135 ft | 320 kts | 33° |
| 2026-05-07 20:50 | 59.80954 | 25.15866 | 11154 ft | 328 kts | 33° |
| 2026-05-07 20:50 | 59.82791 | 25.18460 | 11135 ft | 320 kts | 26° |
| 2026-05-07 20:51 | 59.84779 | 25.20360 | 11135 ft | 315 kts | 18° |
| 2026-05-07 20:51 | 59.86796 | 25.22067 | 11139 ft | 315 kts | 19° |
| 2026-05-07 20:51 | 59.88846 | 25.23479 | 11084 ft | 307 kts | 8° |
| 2026-05-07 20:51 | 59.90934 | 25.23972 | 10653 ft | 300 kts | 355° |
| 2026-05-07 20:52 | 59.92982 | 25.23516 | 10234 ft | 294 kts | 343° |
| 2026-05-07 20:52 | 59.94928 | 25.22333 | 9770 ft | 291 kts | 339° |
| 2026-05-07 20:52 | 59.96854 | 25.21090 | 9311 ft | 290 kts | 340° |
| 2026-05-07 20:52 | 59.98738 | 25.19887 | 9157 ft | 278 kts | 340° |
| 2026-05-07 20:53 | 60.00549 | 25.18737 | 8947 ft | 270 kts | 340° |
| 2026-05-07 20:53 | 60.02326 | 25.17608 | 8577 ft | 267 kts | 340° |
| 2026-05-07 20:53 | 60.04093 | 25.16479 | 8167 ft | 266 kts | 341° |
| 2026-05-07 20:53 | 60.05827 | 25.15370 | 7744 ft | 263 kts | 341° |
| 2026-05-07 20:54 | 60.07561 | 25.14264 | 7060 ft | 262 kts | 341° |
| 2026-05-07 20:54 | 60.09296 | 25.13159 | 6354 ft | 261 kts | 342° |
| 2026-05-07 20:54 | 60.11019 | 25.12050 | 5654 ft | 258 kts | 340° |
| 2026-05-07 20:54 | 60.12623 | 25.10499 | 5007 ft | 254 kts | 328° |
| 2026-05-07 20:55 | 60.14021 | 25.08353 | 4429 ft | 254 kts | 317° |
| 2026-05-07 20:55 | 60.15176 | 25.05702 | 4041 ft | 252 kts | 307° |
| 2026-05-07 20:55 | 60.16052 | 25.02672 | 3644 ft | 251 kts | 298° |
| 2026-05-07 20:55 | 60.16810 | 24.99528 | 3280 ft | 247 kts | 298° |
| 2026-05-07 20:56 | 60.17511 | 24.96478 | 3204 ft | 235 kts | 292° |
| 2026-05-07 20:56 | 60.17801 | 24.93273 | 3095 ft | 235 kts | 274° |
| 2026-05-07 20:56 | 60.17563 | 24.90015 | 3004 ft | 238 kts | 255° |
| 2026-05-07 20:56 | 60.16799 | 24.87031 | 3010 ft | 244 kts | 236° |
| 2026-05-07 20:57 | 60.15666 | 24.84471 | 3011 ft | 246 kts | 230° |
| 2026-05-07 20:57 | 60.14520 | 24.81982 | 3013 ft | 246 kts | 230° |
| 2026-05-07 20:57 | 60.13387 | 24.79414 | 2846 ft | 244 kts | 235° |
| 2026-05-07 20:57 | 60.12638 | 24.76450 | 2659 ft | 234 kts | 263° |
| 2026-05-07 20:58 | 60.12770 | 24.73370 | 2485 ft | 216 kts | 297° |
| 2026-05-07 20:58 | 60.13524 | 24.70892 | 2374 ft | 202 kts | 309° |
| 2026-05-07 20:58 | 60.14512 | 24.69063 | 2314 ft | 190 kts | 334° |
| 2026-05-07 20:58 | 60.15673 | 24.67987 | 2314 ft | 179 kts | 340° |
| 2026-05-07 20:59 | 60.16807 | 24.67061 | 2313 ft | 174 kts | 340° |
| 2026-05-07 20:59 | 60.17931 | 24.66195 | 2313 ft | 172 kts | 347° |
| 2026-05-07 20:59 | 60.19108 | 24.65996 | 2314 ft | 170 kts | 7° |
| 2026-05-07 20:59 | 60.20236 | 24.66703 | 2314 ft | 172 kts | 27° |
| 2026-05-07 21:00 | 60.21143 | 24.68213 | 2334 ft | 167 kts | 43° |
| 2026-05-07 21:00 | 60.21901 | 24.69866 | 2314 ft | 156 kts | 43° |
| 2026-05-07 21:00 | 60.22594 | 24.71379 | 2302 ft | 141 kts | 42° |
| 2026-05-07 21:00 | 60.23247 | 24.72797 | 2304 ft | 136 kts | 41° |
| 2026-05-07 21:01 | 60.23887 | 24.74190 | 2255 ft | 135 kts | 41° |
| 2026-05-07 21:01 | 60.24525 | 24.75579 | 2123 ft | 136 kts | 41° |
| 2026-05-07 21:01 | 60.25156 | 24.76961 | 2012 ft | 132 kts | 41° |
| 2026-05-07 21:01 | 60.25780 | 24.78325 | 1786 ft | 132 kts | 41° |
| 2026-05-07 21:02 | 60.26403 | 24.79684 | 1606 ft | 132 kts | 41° |
| 2026-05-07 21:02 | 60.27026 | 24.81045 | 1434 ft | 132 kts | 42° |
| 2026-05-07 21:02 | 60.27656 | 24.82413 | 1249 ft | 135 kts | 42° |
| 2026-05-07 21:02 | 60.28292 | 24.83799 | 1066 ft | 135 kts | 43° |
| 2026-05-07 21:03 | 60.28931 | 24.85202 | 872 ft | 138 kts | 44° |
| 2026-05-07 21:03 | 60.29590 | 24.86643 | 675 ft | 141 kts | 45° |
| 2026-05-07 21:03 | 60.30259 | 24.88111 | 511 ft | 142 kts | 45° |
| 2026-05-07 21:03 | 60.30929 | 24.89582 | 317 ft | 142 kts | 45° |
| 2026-05-07 21:04 | 60.31575 | 24.91003 | 202 ft | 133 kts | 45° |
| 2026-05-07 21:04 | 60.32116 | 24.92184 | 192 ft | 91 kts | 47° |
| 2026-05-07 21:04 | 60.32401 | 24.92815 | 195 ft | 28 kts | 48° |
| 2026-05-07 21:04 | 60.32452 | 24.93158 | 200 ft | 26 kts | 77° |
| 2026-05-07 21:05 | 60.32492 | 24.93526 | 191 ft | 26 kts | 76° |
| 2026-05-07 21:05 | 60.32522 | 24.93792 | 194 ft | 13 kts | 79° |
| 2026-05-07 21:05 | 60.32553 | 24.93949 | 199 ft | 12 kts | 51° |
| 2026-05-07 21:05 | 60.32610 | 24.94075 | 190 ft | 16 kts | 47° |
| 2026-05-07 21:06 | 60.32707 | 24.94290 | 194 ft | 23 kts | 47° |
| 2026-05-07 21:06 | 60.32819 | 24.94535 | 199 ft | 25 kts | 47° |
| 2026-05-07 21:06 | 60.32903 | 24.94718 | 192 ft | 11 kts | 47° |
| 2026-05-07 21:06 | 60.32925 | 24.94849 | 202 ft | 10 kts | 111° |
| 2026-05-07 21:07 | 60.32873 | 24.94925 | 196 ft | 9 kts | 158° |
| 2026-05-07 21:07 | 60.32817 | 24.94963 | 196 ft | 8 kts | 162° |
| 2026-05-07 21:07 | 60.32724 | 24.95024 | 200 ft | 21 kts | 162° |
| 2026-05-07 21:07 | 60.32633 | 24.95083 | 191 ft | 0 kts | 161° |
| 2026-05-07 21:08 | 60.32605 | 24.95101 | 198 ft | 10 kts | 162° |
| 2026-05-07 21:08 | 60.32521 | 24.95154 | 199 ft | 12 kts | 162° |
| 2026-05-07 21:09 | 60.32441 | 24.95205 | 191 ft | 12 kts | 160° |
| 2026-05-07 21:09 | 60.32366 | 24.95262 | 190 ft | 11 kts | 160° |
| 2026-05-07 21:09 | 60.32300 | 24.95339 | 188 ft | 11 kts | 138° |
| 2026-05-07 21:09 | 60.32245 | 24.95443 | 196 ft | 11 kts | 136° |
| 2026-05-07 21:10 | 60.32190 | 24.95544 | 194 ft | 11 kts | 137° |
| 2026-05-07 21:10 | 60.32134 | 24.95648 | 195 ft | 11 kts | 139° |
| 2026-05-07 21:10 | 60.32063 | 24.95780 | 191 ft | 16 kts | 136° |
| 2026-05-07 21:10 | 60.31977 | 24.95936 | 195 ft | 18 kts | 137° |
| 2026-05-07 21:11 | 60.31887 | 24.96103 | 196 ft | 13 kts | 136° |
| 2026-05-07 21:11 | 60.31854 | 24.96274 | 188 ft | 7 kts | 89° |
| 2026-05-07 21:11 | 60.31811 | 24.96372 | 198 ft | 3 kts | 137° |
| 2026-05-07 21:12 | 60.31803 | 24.96387 | 203 ft | 0 kts | 136° |